sensor_id;sensor_type;location;lat;lon;timestamp;temperature;humidity
63094;DHT22;49183;51.380;0.098;2022-07-29T00:01:55;17.00;69.10
63094;DHT22;49183;51.380;0.098;2022-07-29T00:04:56;17.00;69.00
63094;DHT22;49183;51.380;0.098;2022-07-29T00:07:57;17.00;69.10
63094;DHT22;49183;51.380;0.098;2022-07-29T00:10:58;17.00;69.10
63094;DHT22;49183;51.380;0.098;2022-07-29T00:13:59;17.00;69.10
63094;DHT22;49183;51.380;0.098;2022-07-29T00:17:00;16.90;69.10
63094;DHT22;49183;51.380;0.098;2022-07-29T00:20:06;16.90;69.10
63094;DHT22;49183;51.380;0.098;2022-07-29T00:23:07;16.90;69.00
63094;DHT22;49183;51.380;0.098;2022-07-29T00:26:08;16.90;69.10
63094;DHT22;49183;51.380;0.098;2022-07-29T00:29:09;16.90;69.20
63094;DHT22;49183;51.380;0.098;2022-07-29T00:32:20;16.80;69.20
63094;DHT22;49183;51.380;0.098;2022-07-29T00:35:21;16.80;69.10
63094;DHT22;49183;51.380;0.098;2022-07-29T00:38:38;16.80;69.00
63094;DHT22;49183;51.380;0.098;2022-07-29T00:41:39;16.80;69.10
63094;DHT22;49183;51.380;0.098;2022-07-29T00:44:41;16.80;69.00
63094;DHT22;49183;51.380;0.098;2022-07-29T00:47:42;16.70;68.90
63094;DHT22;49183;51.380;0.098;2022-07-29T00:50:43;16.60;68.80
63094;DHT22;49183;51.380;0.098;2022-07-29T00:53:44;16.60;68.80
63094;DHT22;49183;51.380;0.098;2022-07-29T00:56:45;16.60;68.80
63094;DHT22;49183;51.380;0.098;2022-07-29T00:59:46;16.50;68.90
63094;DHT22;49183;51.380;0.098;2022-07-29T01:02:48;16.50;69.00
63094;DHT22;49183;51.380;0.098;2022-07-29T01:05:50;16.50;68.80
63094;DHT22;49183;51.380;0.098;2022-07-29T01:08:51;16.50;68.60
63094;DHT22;49183;51.380;0.098;2022-07-29T01:11:52;16.50;68.70
63094;DHT22;49183;51.380;0.098;2022-07-29T01:14:55;16.40;68.50
63094;DHT22;49183;51.380;0.098;2022-07-29T01:18:34;16.40;68.10
63094;DHT22;49183;51.380;0.098;2022-07-29T01:21:51;16.40;67.90
63094;DHT22;49183;51.380;0.098;2022-07-29T01:32:06;16.40;67.60
63094;DHT22;49183;51.380;0.098;2022-07-29T01:35:39;16.30;67.50
63094;DHT22;49183;51.380;0.098;2022-07-29T01:38:43;16.30;67.40
63094;DHT22;49183;51.380;0.098;2022-07-29T01:42:20;16.30;67.30
63094;DHT22;49183;51.380;0.098;2022-07-29T01:45:41;16.30;67.40
63094;DHT22;49183;51.380;0.098;2022-07-29T01:48:57;16.30;67.40
63094;DHT22;49183;51.380;0.098;2022-07-29T01:52:07;16.30;67.20
63094;DHT22;49183;51.380;0.098;2022-07-29T01:55:15;16.20;67.10
63094;DHT22;49183;51.380;0.098;2022-07-29T01:58:18;16.20;67.10
63094;DHT22;49183;51.380;0.098;2022-07-29T02:01:20;16.20;67.10
63094;DHT22;49183;51.380;0.098;2022-07-29T02:04:23;16.20;67.10
63094;DHT22;49183;51.380;0.098;2022-07-29T02:07:28;16.20;67.00
63094;DHT22;49183;51.380;0.098;2022-07-29T02:10:32;16.10;66.90
63094;DHT22;49183;51.380;0.098;2022-07-29T02:13:35;16.10;66.70
63094;DHT22;49183;51.380;0.098;2022-07-29T02:16:38;16.10;66.60
63094;DHT22;49183;51.380;0.098;2022-07-29T02:19:42;16.10;66.60
63094;DHT22;49183;51.380;0.098;2022-07-29T02:22:44;16.10;66.60
63094;DHT22;49183;51.380;0.098;2022-07-29T02:25:52;16.10;66.60
63094;DHT22;49183;51.380;0.098;2022-07-29T02:28:55;16.00;66.60
63094;DHT22;49183;51.380;0.098;2022-07-29T02:31:57;16.00;66.70
63094;DHT22;49183;51.380;0.098;2022-07-29T02:35:01;16.00;66.70
63094;DHT22;49183;51.380;0.098;2022-07-29T02:38:03;16.00;66.70
63094;DHT22;49183;51.380;0.098;2022-07-29T02:44:42;15.90;66.70
63094;DHT22;49183;51.380;0.098;2022-07-29T02:47:47;15.90;66.60
63094;DHT22;49183;51.380;0.098;2022-07-29T02:50:55;15.90;66.80
63094;DHT22;49183;51.380;0.098;2022-07-29T02:54:48;15.80;66.90
63094;DHT22;49183;51.380;0.098;2022-07-29T02:57:47;15.80;66.80
63094;DHT22;49183;51.380;0.098;2022-07-29T03:00:51;15.80;66.90
63094;DHT22;49183;51.380;0.098;2022-07-29T03:03:54;15.80;67.00
63094;DHT22;49183;51.380;0.098;2022-07-29T03:06:58;15.80;67.00
63094;DHT22;49183;51.380;0.098;2022-07-29T03:09:59;15.70;67.10
63094;DHT22;49183;51.380;0.098;2022-07-29T03:13:05;15.80;67.20
63094;DHT22;49183;51.380;0.098;2022-07-29T03:16:07;15.80;67.20
63094;DHT22;49183;51.380;0.098;2022-07-29T03:19:08;15.70;67.30
63094;DHT22;49183;51.380;0.098;2022-07-29T03:22:09;15.60;67.40
63094;DHT22;49183;51.380;0.098;2022-07-29T03:25:11;15.60;67.40
63094;DHT22;49183;51.380;0.098;2022-07-29T03:28:12;15.60;67.60
63094;DHT22;49183;51.380;0.098;2022-07-29T03:31:13;15.60;67.70
63094;DHT22;49183;51.380;0.098;2022-07-29T03:34:14;15.50;68.10
63094;DHT22;49183;51.380;0.098;2022-07-29T03:37:15;15.50;68.40
63094;DHT22;49183;51.380;0.098;2022-07-29T03:40:48;15.50;68.90
63094;DHT22;49183;51.380;0.098;2022-07-29T03:43:43;15.40;69.40
63094;DHT22;49183;51.380;0.098;2022-07-29T03:46:39;15.30;69.90
63094;DHT22;49183;51.380;0.098;2022-07-29T03:49:40;15.30;70.50
63094;DHT22;49183;51.380;0.098;2022-07-29T03:52:42;15.20;71.10
63094;DHT22;49183;51.380;0.098;2022-07-29T03:55:46;15.10;71.70
63094;DHT22;49183;51.380;0.098;2022-07-29T03:58:50;15.00;72.10
63094;DHT22;49183;51.380;0.098;2022-07-29T04:01:53;14.90;72.60
63094;DHT22;49183;51.380;0.098;2022-07-29T04:04:56;14.90;73.10
63094;DHT22;49183;51.380;0.098;2022-07-29T04:07:56;14.80;73.50
63094;DHT22;49183;51.380;0.098;2022-07-29T04:10:57;14.80;73.90
63094;DHT22;49183;51.380;0.098;2022-07-29T04:13:58;14.70;74.40
63094;DHT22;49183;51.380;0.098;2022-07-29T04:17:00;14.70;74.70
63094;DHT22;49183;51.380;0.098;2022-07-29T04:20:02;14.60;74.90
63094;DHT22;49183;51.380;0.098;2022-07-29T04:23:02;14.60;75.20
63094;DHT22;49183;51.380;0.098;2022-07-29T04:26:03;14.60;75.40
63094;DHT22;49183;51.380;0.098;2022-07-29T04:29:04;14.60;75.70
63094;DHT22;49183;51.380;0.098;2022-07-29T04:32:06;14.60;75.80
63094;DHT22;49183;51.380;0.098;2022-07-29T04:35:07;14.60;75.90
63094;DHT22;49183;51.380;0.098;2022-07-29T04:38:07;14.60;76.00
63094;DHT22;49183;51.380;0.098;2022-07-29T04:41:08;14.60;76.10
63094;DHT22;49183;51.380;0.098;2022-07-29T04:44:18;14.60;76.20
63094;DHT22;49183;51.380;0.098;2022-07-29T04:47:25;14.60;76.50
63094;DHT22;49183;51.380;0.098;2022-07-29T04:50:26;14.60;76.60
63094;DHT22;49183;51.380;0.098;2022-07-29T04:53:20;14.60;76.60
63094;DHT22;49183;51.380;0.098;2022-07-29T04:56:21;14.60;76.70
63094;DHT22;49183;51.380;0.098;2022-07-29T04:59:22;14.60;76.70
63094;DHT22;49183;51.380;0.098;2022-07-29T05:02:23;14.60;76.70
63094;DHT22;49183;51.380;0.098;2022-07-29T05:05:24;14.60;76.80
63094;DHT22;49183;51.380;0.098;2022-07-29T05:08:25;14.60;76.90
63094;DHT22;49183;51.380;0.098;2022-07-29T05:11:27;14.60;77.10
63094;DHT22;49183;51.380;0.098;2022-07-29T05:14:21;14.60;77.30
63094;DHT22;49183;51.380;0.098;2022-07-29T05:17:22;14.50;77.70
63094;DHT22;49183;51.380;0.098;2022-07-29T05:20:23;14.50;78.20
63094;DHT22;49183;51.380;0.098;2022-07-29T05:23:24;14.40;78.50
63094;DHT22;49183;51.380;0.098;2022-07-29T05:26:25;14.40;78.80
63094;DHT22;49183;51.380;0.098;2022-07-29T05:29:26;14.40;79.40
63094;DHT22;49183;51.380;0.098;2022-07-29T05:32:31;14.40;79.50
63094;DHT22;49183;51.380;0.098;2022-07-29T05:35:32;14.30;79.70
63094;DHT22;49183;51.380;0.098;2022-07-29T05:38:34;14.30;80.00
63094;DHT22;49183;51.380;0.098;2022-07-29T05:41:35;14.40;80.10
63094;DHT22;49183;51.380;0.098;2022-07-29T05:44:38;14.40;80.10
63094;DHT22;49183;51.380;0.098;2022-07-29T05:47:39;14.40;80.20
63094;DHT22;49183;51.380;0.098;2022-07-29T05:50:40;14.40;80.20
63094;DHT22;49183;51.380;0.098;2022-07-29T05:53:41;14.40;80.10
63094;DHT22;49183;51.380;0.098;2022-07-29T05:56:42;14.50;80.20
63094;DHT22;49183;51.380;0.098;2022-07-29T05:59:43;14.50;80.30
63094;DHT22;49183;51.380;0.098;2022-07-29T06:02:51;14.50;80.20
63094;DHT22;49183;51.380;0.098;2022-07-29T06:05:52;14.50;80.20
63094;DHT22;49183;51.380;0.098;2022-07-29T06:08:53;14.60;80.20
63094;DHT22;49183;51.380;0.098;2022-07-29T06:11:58;14.50;80.30
63094;DHT22;49183;51.380;0.098;2022-07-29T06:14:59;14.50;80.50
63094;DHT22;49183;51.380;0.098;2022-07-29T06:18:01;14.60;80.70
63094;DHT22;49183;51.380;0.098;2022-07-29T06:21:07;14.50;80.70
63094;DHT22;49183;51.380;0.098;2022-07-29T06:24:10;14.50;80.70
63094;DHT22;49183;51.380;0.098;2022-07-29T06:27:11;14.60;80.80
63094;DHT22;49183;51.380;0.098;2022-07-29T06:30:13;14.60;81.00
63094;DHT22;49183;51.380;0.098;2022-07-29T06:33:18;14.60;81.00
63094;DHT22;49183;51.380;0.098;2022-07-29T06:36:19;14.60;81.10
63094;DHT22;49183;51.380;0.098;2022-07-29T06:39:21;14.60;81.20
63094;DHT22;49183;51.380;0.098;2022-07-29T06:42:22;14.70;81.20
63094;DHT22;49183;51.380;0.098;2022-07-29T06:45:23;14.80;81.20
63094;DHT22;49183;51.380;0.098;2022-07-29T06:48:24;14.80;81.10
63094;DHT22;49183;51.380;0.098;2022-07-29T06:51:25;14.90;80.90
63094;DHT22;49183;51.380;0.098;2022-07-29T06:54:26;14.90;80.80
63094;DHT22;49183;51.380;0.098;2022-07-29T06:57:27;15.00;80.60
63094;DHT22;49183;51.380;0.098;2022-07-29T07:00:28;15.10;80.60
63094;DHT22;49183;51.380;0.098;2022-07-29T07:03:30;15.20;80.60
63094;DHT22;49183;51.380;0.098;2022-07-29T07:06:32;15.30;80.60
63094;DHT22;49183;51.380;0.098;2022-07-29T07:09:33;15.40;80.60
63094;DHT22;49183;51.380;0.098;2022-07-29T07:12:34;15.50;80.40
63094;DHT22;49183;51.380;0.098;2022-07-29T07:15:36;15.60;80.20
63094;DHT22;49183;51.380;0.098;2022-07-29T07:18:37;15.60;80.10
63094;DHT22;49183;51.380;0.098;2022-07-29T07:21:38;15.70;80.20
63094;DHT22;49183;51.380;0.098;2022-07-29T07:24:32;15.60;80.10
63094;DHT22;49183;51.380;0.098;2022-07-29T07:27:33;15.60;80.00
63094;DHT22;49183;51.380;0.098;2022-07-29T07:30:35;15.60;80.00
63094;DHT22;49183;51.380;0.098;2022-07-29T07:33:35;15.60;79.80
63094;DHT22;49183;51.380;0.098;2022-07-29T07:36:36;15.70;79.90
63094;DHT22;49183;51.380;0.098;2022-07-29T07:39:37;15.70;79.90
63094;DHT22;49183;51.380;0.098;2022-07-29T07:42:40;15.80;79.80
63094;DHT22;49183;51.380;0.098;2022-07-29T07:45:41;15.80;79.70
63094;DHT22;49183;51.380;0.098;2022-07-29T07:48:42;16.00;79.70
63094;DHT22;49183;51.380;0.098;2022-07-29T07:51:43;16.10;79.50
63094;DHT22;49183;51.380;0.098;2022-07-29T07:54:44;16.10;79.30
63094;DHT22;49183;51.380;0.098;2022-07-29T07:57:45;16.10;79.20
63094;DHT22;49183;51.380;0.098;2022-07-29T08:00:47;16.20;79.00
63094;DHT22;49183;51.380;0.098;2022-07-29T08:03:48;16.20;78.90
63094;DHT22;49183;51.380;0.098;2022-07-29T08:06:49;16.30;78.80
63094;DHT22;49183;51.380;0.098;2022-07-29T08:09:50;16.30;78.70
63094;DHT22;49183;51.380;0.098;2022-07-29T08:12:51;16.40;78.40
63094;DHT22;49183;51.380;0.098;2022-07-29T08:15:52;16.40;78.40
63094;DHT22;49183;51.380;0.098;2022-07-29T08:18:54;16.40;78.40
63094;DHT22;49183;51.380;0.098;2022-07-29T08:21:55;16.50;78.40
63094;DHT22;49183;51.380;0.098;2022-07-29T08:24:56;16.60;78.20
63094;DHT22;49183;51.380;0.098;2022-07-29T08:27:58;16.70;78.10
63094;DHT22;49183;51.380;0.098;2022-07-29T08:30:59;16.80;77.80
63094;DHT22;49183;51.380;0.098;2022-07-29T08:34:00;16.90;77.40
63094;DHT22;49183;51.380;0.098;2022-07-29T08:36:56;17.00;77.40
63094;DHT22;49183;51.380;0.098;2022-07-29T08:39:56;17.10;77.20
63094;DHT22;49183;51.380;0.098;2022-07-29T08:42:58;17.30;76.90
63094;DHT22;49183;51.380;0.098;2022-07-29T08:46:00;17.40;76.70
63094;DHT22;49183;51.380;0.098;2022-07-29T08:49:02;17.60;76.20
63094;DHT22;49183;51.380;0.098;2022-07-29T08:52:02;17.70;75.80
63094;DHT22;49183;51.380;0.098;2022-07-29T08:55:05;17.80;75.40
63094;DHT22;49183;51.380;0.098;2022-07-29T08:58:08;17.80;75.00
63094;DHT22;49183;51.380;0.098;2022-07-29T09:01:16;18.00;74.90
63094;DHT22;49183;51.380;0.098;2022-07-29T09:04:25;18.20;74.60
63094;DHT22;49183;51.380;0.098;2022-07-29T09:07:28;18.30;74.00
63094;DHT22;49183;51.380;0.098;2022-07-29T09:10:28;18.50;73.60
63094;DHT22;49183;51.380;0.098;2022-07-29T09:13:31;18.70;73.30
63094;DHT22;49183;51.380;0.098;2022-07-29T09:16:47;18.90;72.40
63094;DHT22;49183;51.380;0.098;2022-07-29T09:19:51;19.10;71.60
63094;DHT22;49183;51.380;0.098;2022-07-29T09:22:53;19.30;71.50
63094;DHT22;49183;51.380;0.098;2022-07-29T09:25:53;19.60;70.80
63094;DHT22;49183;51.380;0.098;2022-07-29T09:28:54;19.90;70.50
63094;DHT22;49183;51.380;0.098;2022-07-29T09:31:55;20.20;69.70
63094;DHT22;49183;51.380;0.098;2022-07-29T09:35:19;20.40;68.70
63094;DHT22;49183;51.380;0.098;2022-07-29T09:38:21;20.60;67.90
63094;DHT22;49183;51.380;0.098;2022-07-29T09:41:22;20.70;67.50
63094;DHT22;49183;51.380;0.098;2022-07-29T09:44:25;20.80;67.10
63094;DHT22;49183;51.380;0.098;2022-07-29T09:47:48;20.80;66.80
63094;DHT22;49183;51.380;0.098;2022-07-29T09:50:51;20.90;65.90
63094;DHT22;49183;51.380;0.098;2022-07-29T09:53:53;20.90;65.80
63094;DHT22;49183;51.380;0.098;2022-07-29T09:56:57;21.00;65.40
63094;DHT22;49183;51.380;0.098;2022-07-29T10:00:04;21.10;65.10
63094;DHT22;49183;51.380;0.098;2022-07-29T10:03:05;21.30;64.50
63094;DHT22;49183;51.380;0.098;2022-07-29T10:06:11;21.30;63.80
63094;DHT22;49183;51.380;0.098;2022-07-29T10:09:11;21.30;63.40
63094;DHT22;49183;51.380;0.098;2022-07-29T10:12:13;21.40;63.00
63094;DHT22;49183;51.380;0.098;2022-07-29T10:15:15;21.40;62.70
63094;DHT22;49183;51.380;0.098;2022-07-29T10:18:15;21.40;62.40
63094;DHT22;49183;51.380;0.098;2022-07-29T10:21:11;21.50;62.20
63094;DHT22;49183;51.380;0.098;2022-07-29T10:24:24;21.60;62.50
63094;DHT22;49183;51.380;0.098;2022-07-29T10:27:26;21.80;62.30
63094;DHT22;49183;51.380;0.098;2022-07-29T10:30:27;21.90;62.20
63094;DHT22;49183;51.380;0.098;2022-07-29T10:33:47;22.10;61.50
63094;DHT22;49183;51.380;0.098;2022-07-29T10:37:18;22.10;60.90
63094;DHT22;49183;51.380;0.098;2022-07-29T10:44:20;22.20;60.50
63094;DHT22;49183;51.380;0.098;2022-07-29T10:47:27;22.30;60.20
63094;DHT22;49183;51.380;0.098;2022-07-29T10:50:58;22.20;60.10
63094;DHT22;49183;51.380;0.098;2022-07-29T10:54:04;22.10;59.10
63094;DHT22;49183;51.380;0.098;2022-07-29T11:00:32;21.90;59.60
63094;DHT22;49183;51.380;0.098;2022-07-29T11:03:47;22.00;59.20
63094;DHT22;49183;51.380;0.098;2022-07-29T11:07:07;22.00;59.40
63094;DHT22;49183;51.380;0.098;2022-07-29T11:17:05;22.30;58.90
63094;DHT22;49183;51.380;0.098;2022-07-29T11:23:35;22.70;58.00
63094;DHT22;49183;51.380;0.098;2022-07-29T11:26:37;22.80;57.50
63094;DHT22;49183;51.380;0.098;2022-07-29T11:29:40;23.00;56.90
63094;DHT22;49183;51.380;0.098;2022-07-29T11:32:49;23.20;56.10
63094;DHT22;49183;51.380;0.098;2022-07-29T11:36:10;23.30;55.90
63094;DHT22;49183;51.380;0.098;2022-07-29T11:39:28;23.30;55.00
63094;DHT22;49183;51.380;0.098;2022-07-29T11:45:46;22.90;55.60
63094;DHT22;49183;51.380;0.098;2022-07-29T11:48:47;22.70;55.90
63094;DHT22;49183;51.380;0.098;2022-07-29T11:51:56;22.70;56.20
63094;DHT22;49183;51.380;0.098;2022-07-29T11:55:01;22.60;56.40
63094;DHT22;49183;51.380;0.098;2022-07-29T11:58:04;22.60;56.80
63094;DHT22;49183;51.380;0.098;2022-07-29T12:01:05;22.60;57.20
63094;DHT22;49183;51.380;0.098;2022-07-29T12:04:06;22.60;57.00
63094;DHT22;49183;51.380;0.098;2022-07-29T12:07:07;22.60;56.90
63094;DHT22;49183;51.380;0.098;2022-07-29T12:10:19;22.60;57.10
63094;DHT22;49183;51.380;0.098;2022-07-29T12:13:20;22.70;57.30
63094;DHT22;49183;51.380;0.098;2022-07-29T12:16:35;22.60;57.30
63094;DHT22;49183;51.380;0.098;2022-07-29T12:19:43;22.50;57.20
63094;DHT22;49183;51.380;0.098;2022-07-29T12:22:46;22.50;57.50
63094;DHT22;49183;51.380;0.098;2022-07-29T12:25:49;22.50;57.80
63094;DHT22;49183;51.380;0.098;2022-07-29T12:28:50;22.50;57.80
63094;DHT22;49183;51.380;0.098;2022-07-29T12:31:57;22.50;57.70
63094;DHT22;49183;51.380;0.098;2022-07-29T12:35:07;22.60;57.50
63094;DHT22;49183;51.380;0.098;2022-07-29T12:38:10;22.60;57.30
63094;DHT22;49183;51.380;0.098;2022-07-29T12:41:12;22.60;56.80
63094;DHT22;49183;51.380;0.098;2022-07-29T12:44:14;22.60;56.40
63094;DHT22;49183;51.380;0.098;2022-07-29T12:47:16;22.60;55.90
63094;DHT22;49183;51.380;0.098;2022-07-29T12:50:17;22.80;55.70
63094;DHT22;49183;51.380;0.098;2022-07-29T12:53:19;22.80;55.20
63094;DHT22;49183;51.380;0.098;2022-07-29T12:56:22;22.90;54.80
63094;DHT22;49183;51.380;0.098;2022-07-29T12:59:31;23.00;54.70
63094;DHT22;49183;51.380;0.098;2022-07-29T13:02:32;23.10;54.50
63094;DHT22;49183;51.380;0.098;2022-07-29T13:05:43;23.30;54.40
63094;DHT22;49183;51.380;0.098;2022-07-29T13:09:09;23.40;54.40
63094;DHT22;49183;51.380;0.098;2022-07-29T13:12:12;23.50;54.00
63094;DHT22;49183;51.380;0.098;2022-07-29T13:15:15;23.50;54.00
63094;DHT22;49183;51.380;0.098;2022-07-29T13:18:34;23.50;54.00
63094;DHT22;49183;51.380;0.098;2022-07-29T13:21:37;23.60;54.00
63094;DHT22;49183;51.380;0.098;2022-07-29T13:24:57;23.70;54.30
63094;DHT22;49183;51.380;0.098;2022-07-29T13:28:00;23.80;54.30
63094;DHT22;49183;51.380;0.098;2022-07-29T13:31:01;24.10;53.80
63094;DHT22;49183;51.380;0.098;2022-07-29T13:34:02;24.30;52.90
63094;DHT22;49183;51.380;0.098;2022-07-29T13:37:03;24.40;52.50
63094;DHT22;49183;51.380;0.098;2022-07-29T13:40:08;24.50;52.00
63094;DHT22;49183;51.380;0.098;2022-07-29T13:43:09;24.50;52.20
63094;DHT22;49183;51.380;0.098;2022-07-29T13:46:11;24.50;52.40
63094;DHT22;49183;51.380;0.098;2022-07-29T13:49:12;24.50;52.30
63094;DHT22;49183;51.380;0.098;2022-07-29T13:52:13;24.40;51.90
63094;DHT22;49183;51.380;0.098;2022-07-29T13:55:15;24.40;51.80
63094;DHT22;49183;51.380;0.098;2022-07-29T13:58:16;24.40;52.30
63094;DHT22;49183;51.380;0.098;2022-07-29T14:01:25;24.50;52.40
63094;DHT22;49183;51.380;0.098;2022-07-29T14:04:26;24.50;51.70
63094;DHT22;49183;51.380;0.098;2022-07-29T14:07:27;24.50;51.20
63094;DHT22;49183;51.380;0.098;2022-07-29T14:10:28;24.50;50.90
63094;DHT22;49183;51.380;0.098;2022-07-29T14:13:29;24.60;50.80
63094;DHT22;49183;51.380;0.098;2022-07-29T14:16:30;24.60;50.70
63094;DHT22;49183;51.380;0.098;2022-07-29T14:19:38;24.70;50.90
63094;DHT22;49183;51.380;0.098;2022-07-29T14:22:39;24.80;50.40
63094;DHT22;49183;51.380;0.098;2022-07-29T14:25:41;24.70;50.20
63094;DHT22;49183;51.380;0.098;2022-07-29T14:28:42;24.70;50.20
63094;DHT22;49183;51.380;0.098;2022-07-29T14:31:43;24.70;50.00
63094;DHT22;49183;51.380;0.098;2022-07-29T14:34:44;24.60;49.90
63094;DHT22;49183;51.380;0.098;2022-07-29T14:37:45;24.50;50.20
63094;DHT22;49183;51.380;0.098;2022-07-29T14:40:46;24.30;50.50
63094;DHT22;49183;51.380;0.098;2022-07-29T14:43:47;24.20;50.70
63094;DHT22;49183;51.380;0.098;2022-07-29T14:46:48;24.20;50.50
63094;DHT22;49183;51.380;0.098;2022-07-29T14:49:54;24.20;50.80
63094;DHT22;49183;51.380;0.098;2022-07-29T14:52:55;24.10;50.90
63094;DHT22;49183;51.380;0.098;2022-07-29T14:55:56;24.20;51.10
63094;DHT22;49183;51.380;0.098;2022-07-29T14:59:17;24.20;51.30
63094;DHT22;49183;51.380;0.098;2022-07-29T15:02:18;24.10;51.40
63094;DHT22;49183;51.380;0.098;2022-07-29T15:05:39;24.00;51.40
63094;DHT22;49183;51.380;0.098;2022-07-29T15:08:40;23.90;51.70
63094;DHT22;49183;51.380;0.098;2022-07-29T15:11:41;23.80;51.80
63094;DHT22;49183;51.380;0.098;2022-07-29T15:14:42;23.80;51.80
63094;DHT22;49183;51.380;0.098;2022-07-29T15:17:43;23.60;52.10
63094;DHT22;49183;51.380;0.098;2022-07-29T15:20:44;23.40;52.40
63094;DHT22;49183;51.380;0.098;2022-07-29T15:23:45;23.20;52.90
63094;DHT22;49183;51.380;0.098;2022-07-29T15:26:46;23.10;53.40
63094;DHT22;49183;51.380;0.098;2022-07-29T15:29:48;23.00;53.60
63094;DHT22;49183;51.380;0.098;2022-07-29T15:32:49;22.90;53.80
63094;DHT22;49183;51.380;0.098;2022-07-29T15:35:50;22.80;53.90
63094;DHT22;49183;51.380;0.098;2022-07-29T15:38:54;22.80;54.10
63094;DHT22;49183;51.380;0.098;2022-07-29T15:41:55;22.80;54.70
63094;DHT22;49183;51.380;0.098;2022-07-29T15:44:56;22.80;55.00
63094;DHT22;49183;51.380;0.098;2022-07-29T15:47:57;22.80;55.20
63094;DHT22;49183;51.380;0.098;2022-07-29T15:51:01;22.80;55.30
63094;DHT22;49183;51.380;0.098;2022-07-29T15:54:02;22.60;55.40
63094;DHT22;49183;51.380;0.098;2022-07-29T15:57:06;22.50;55.40
63094;DHT22;49183;51.380;0.098;2022-07-29T16:00:07;22.50;55.80
63094;DHT22;49183;51.380;0.098;2022-07-29T16:03:10;22.50;56.40
63094;DHT22;49183;51.380;0.098;2022-07-29T16:06:11;22.50;56.80
63094;DHT22;49183;51.380;0.098;2022-07-29T16:09:12;22.50;56.60
63094;DHT22;49183;51.380;0.098;2022-07-29T16:12:14;22.70;56.20
63094;DHT22;49183;51.380;0.098;2022-07-29T16:15:15;22.70;55.80
63094;DHT22;49183;51.380;0.098;2022-07-29T16:18:16;22.80;55.60
63094;DHT22;49183;51.380;0.098;2022-07-29T16:21:17;22.80;55.60
63094;DHT22;49183;51.380;0.098;2022-07-29T16:24:18;22.80;55.40
63094;DHT22;49183;51.380;0.098;2022-07-29T16:27:22;22.80;55.60
63094;DHT22;49183;51.380;0.098;2022-07-29T16:30:24;22.80;55.40
63094;DHT22;49183;51.380;0.098;2022-07-29T16:33:25;22.80;54.90
63094;DHT22;49183;51.380;0.098;2022-07-29T16:36:42;22.90;54.70
63094;DHT22;49183;51.380;0.098;2022-07-29T16:39:43;23.00;54.70
63094;DHT22;49183;51.380;0.098;2022-07-29T16:42:37;23.00;54.90
63094;DHT22;49183;51.380;0.098;2022-07-29T16:45:38;23.00;54.90
63094;DHT22;49183;51.380;0.098;2022-07-29T16:48:41;22.80;55.30
63094;DHT22;49183;51.380;0.098;2022-07-29T16:51:42;22.80;55.40
63094;DHT22;49183;51.380;0.098;2022-07-29T16:54:43;22.70;56.00
63094;DHT22;49183;51.380;0.098;2022-07-29T16:57:44;22.70;56.40
63094;DHT22;49183;51.380;0.098;2022-07-29T17:00:47;22.80;56.30
63094;DHT22;49183;51.380;0.098;2022-07-29T17:03:48;22.80;55.80
63094;DHT22;49183;51.380;0.098;2022-07-29T17:07:01;22.80;55.60
63094;DHT22;49183;51.380;0.098;2022-07-29T17:10:02;22.80;55.20
63094;DHT22;49183;51.380;0.098;2022-07-29T17:13:03;22.80;55.00
63094;DHT22;49183;51.380;0.098;2022-07-29T17:16:04;22.80;55.20
63094;DHT22;49183;51.380;0.098;2022-07-29T17:19:05;22.60;55.60
63094;DHT22;49183;51.380;0.098;2022-07-29T17:22:07;22.60;55.80
63094;DHT22;49183;51.380;0.098;2022-07-29T17:25:09;22.50;56.20
63094;DHT22;49183;51.380;0.098;2022-07-29T17:28:10;22.50;56.20
63094;DHT22;49183;51.380;0.098;2022-07-29T17:31:11;22.40;56.10
63094;DHT22;49183;51.380;0.098;2022-07-29T17:34:12;22.40;56.30
63094;DHT22;49183;51.380;0.098;2022-07-29T17:37:13;22.30;56.50
63094;DHT22;49183;51.380;0.098;2022-07-29T17:40:14;22.20;56.40
63094;DHT22;49183;51.380;0.098;2022-07-29T17:43:15;22.10;56.80
63094;DHT22;49183;51.380;0.098;2022-07-29T17:46:16;22.10;57.40
63094;DHT22;49183;51.380;0.098;2022-07-29T17:49:20;22.00;57.30
63094;DHT22;49183;51.380;0.098;2022-07-29T17:52:23;21.90;57.30
63094;DHT22;49183;51.380;0.098;2022-07-29T17:55:24;21.90;57.50
63094;DHT22;49183;51.380;0.098;2022-07-29T17:58:25;21.80;57.60
63094;DHT22;49183;51.380;0.098;2022-07-29T18:01:27;21.80;58.20
63094;DHT22;49183;51.380;0.098;2022-07-29T18:04:28;21.70;59.00
63094;DHT22;49183;51.380;0.098;2022-07-29T18:07:29;21.70;59.30
63094;DHT22;49183;51.380;0.098;2022-07-29T18:10:30;21.50;59.10
63094;DHT22;49183;51.380;0.098;2022-07-29T18:13:31;21.50;59.30
63094;DHT22;49183;51.380;0.098;2022-07-29T18:16:32;21.40;59.70
63094;DHT22;49183;51.380;0.098;2022-07-29T18:19:33;21.30;59.80
63094;DHT22;49183;51.380;0.098;2022-07-29T18:22:34;21.30;59.70
63094;DHT22;49183;51.380;0.098;2022-07-29T18:25:35;21.40;59.50
63094;DHT22;49183;51.380;0.098;2022-07-29T18:28:37;21.50;59.30
63094;DHT22;49183;51.380;0.098;2022-07-29T18:31:38;21.60;59.30
63094;DHT22;49183;51.380;0.098;2022-07-29T18:34:39;21.70;59.00
63094;DHT22;49183;51.380;0.098;2022-07-29T18:37:40;21.90;58.80
63094;DHT22;49183;51.380;0.098;2022-07-29T18:40:47;22.30;58.20
63094;DHT22;49183;51.380;0.098;2022-07-29T18:43:49;22.40;57.60
63094;DHT22;49183;51.380;0.098;2022-07-29T18:46:50;22.70;57.50
63094;DHT22;49183;51.380;0.098;2022-07-29T18:49:52;23.00;56.60
63094;DHT22;49183;51.380;0.098;2022-07-29T18:52:53;23.30;55.70
63094;DHT22;49183;51.380;0.098;2022-07-29T18:55:56;23.50;54.90
63094;DHT22;49183;51.380;0.098;2022-07-29T18:58:57;23.40;54.50
63094;DHT22;49183;51.380;0.098;2022-07-29T19:01:58;23.20;54.50
63094;DHT22;49183;51.380;0.098;2022-07-29T19:04:59;22.90;55.10
63094;DHT22;49183;51.380;0.098;2022-07-29T19:08:00;22.70;55.70
63094;DHT22;49183;51.380;0.098;2022-07-29T19:11:01;22.40;56.30
63094;DHT22;49183;51.380;0.098;2022-07-29T19:14:03;22.20;56.70
63094;DHT22;49183;51.380;0.098;2022-07-29T19:17:04;21.90;57.20
63094;DHT22;49183;51.380;0.098;2022-07-29T19:20:09;21.70;57.80
63094;DHT22;49183;51.380;0.098;2022-07-29T19:23:10;21.50;58.30
63094;DHT22;49183;51.380;0.098;2022-07-29T19:26:11;21.30;58.70
63094;DHT22;49183;51.380;0.098;2022-07-29T19:29:13;21.10;59.20
63094;DHT22;49183;51.380;0.098;2022-07-29T19:32:16;21.00;59.40
63094;DHT22;49183;51.380;0.098;2022-07-29T19:35:18;20.80;59.80
63094;DHT22;49183;51.380;0.098;2022-07-29T19:38:24;20.80;60.10
63094;DHT22;49183;51.380;0.098;2022-07-29T19:41:26;20.60;60.60
63094;DHT22;49183;51.380;0.098;2022-07-29T19:44:27;20.40;61.10
63094;DHT22;49183;51.380;0.098;2022-07-29T19:47:28;20.20;61.60
63094;DHT22;49183;51.380;0.098;2022-07-29T19:50:29;20.00;62.40